sensor_id;sensor_type;location;lat;lon;timestamp;P1;durP1;ratioP1;P2;durP2;ratioP2
54123;SDS011;55741;53.252;5.788;2023-02-07T00:00:09;13.93;;;7.78;;
54123;SDS011;55741;53.252;5.788;2023-02-07T00:02:41;15.68;;;7.00;;
54123;SDS011;55741;53.252;5.788;2023-02-07T00:05:09;15.80;;;6.88;;
54123;SDS011;55741;53.252;5.788;2023-02-07T00:07:35;17.70;;;8.00;;
54123;SDS011;55741;53.252;5.788;2023-02-07T00:10:02;19.95;;;8.00;;
54123;SDS011;55741;53.252;5.788;2023-02-07T00:12:29;23.80;;;8.85;;
54123;SDS011;55741;53.252;5.788;2023-02-07T00:14:54;26.70;;;9.00;;
54123;SDS011;55741;53.252;5.788;2023-02-07T00:17:20;22.00;;;8.35;;
54123;SDS011;55741;53.252;5.788;2023-02-07T00:19:46;22.42;;;9.25;;
54123;SDS011;55741;53.252;5.788;2023-02-07T00:22:12;30.92;;;9.43;;
54123;SDS011;55741;53.252;5.788;2023-02-07T00:24:38;28.17;;;8.45;;
54123;SDS011;55741;53.252;5.788;2023-02-07T00:27:03;26.73;;;9.10;;
54123;SDS011;55741;53.252;5.788;2023-02-07T00:29:29;31.45;;;9.95;;
54123;SDS011;55741;53.252;5.788;2023-02-07T00:31:57;20.38;;;8.63;;
54123;SDS011;55741;53.252;5.788;2023-02-07T00:34:23;27.38;;;9.15;;
54123;SDS011;55741;53.252;5.788;2023-02-07T00:36:49;24.38;;;8.20;;
54123;SDS011;55741;53.252;5.788;2023-02-07T00:39:15;32.38;;;9.38;;
54123;SDS011;55741;53.252;5.788;2023-02-07T00:41:43;29.98;;;9.18;;
54123;SDS011;55741;53.252;5.788;2023-02-07T00:44:10;29.48;;;9.48;;
54123;SDS011;55741;53.252;5.788;2023-02-07T00:46:37;34.30;;;9.18;;
54123;SDS011;55741;53.252;5.788;2023-02-07T00:49:03;30.48;;;11.77;;
54123;SDS011;55741;53.252;5.788;2023-02-07T00:51:29;34.55;;;10.27;;
54123;SDS011;55741;53.252;5.788;2023-02-07T00:53:56;30.08;;;9.43;;
54123;SDS011;55741;53.252;5.788;2023-02-07T00:56:23;33.00;;;10.30;;
54123;SDS011;55741;53.252;5.788;2023-02-07T00:58:50;24.17;;;8.00;;
54123;SDS011;55741;53.252;5.788;2023-02-07T01:01:16;23.25;;;8.73;;
54123;SDS011;55741;53.252;5.788;2023-02-07T01:03:42;33.63;;;9.00;;
54123;SDS011;55741;53.252;5.788;2023-02-07T01:06:08;28.30;;;9.32;;
54123;SDS011;55741;53.252;5.788;2023-02-07T01:08:35;29.33;;;8.32;;
54123;SDS011;55741;53.252;5.788;2023-02-07T01:11:02;30.80;;;8.73;;
54123;SDS011;55741;53.252;5.788;2023-02-07T01:13:33;35.75;;;8.20;;
54123;SDS011;55741;53.252;5.788;2023-02-07T01:15:59;29.98;;;8.85;;
54123;SDS011;55741;53.252;5.788;2023-02-07T01:18:25;27.55;;;8.68;;
54123;SDS011;55741;53.252;5.788;2023-02-07T01:20:51;24.95;;;9.10;;
54123;SDS011;55741;53.252;5.788;2023-02-07T01:23:17;26.70;;;9.45;;
54123;SDS011;55741;53.252;5.788;2023-02-07T01:25:44;31.27;;;9.65;;
54123;SDS011;55741;53.252;5.788;2023-02-07T01:28:10;32.35;;;9.50;;
54123;SDS011;55741;53.252;5.788;2023-02-07T01:30:38;38.05;;;10.00;;
54123;SDS011;55741;53.252;5.788;2023-02-07T01:33:04;27.95;;;9.05;;
54123;SDS011;55741;53.252;5.788;2023-02-07T01:35:30;31.77;;;10.40;;
54123;SDS011;55741;53.252;5.788;2023-02-07T01:37:56;21.70;;;8.90;;
54123;SDS011;55741;53.252;5.788;2023-02-07T01:40:24;40.75;;;9.23;;
54123;SDS011;55741;53.252;5.788;2023-02-07T01:42:52;30.30;;;10.30;;
54123;SDS011;55741;53.252;5.788;2023-02-07T01:45:24;30.88;;;9.82;;
54123;SDS011;55741;53.252;5.788;2023-02-07T01:48:04;30.98;;;9.40;;
54123;SDS011;55741;53.252;5.788;2023-02-07T01:50:35;25.88;;;9.48;;
54123;SDS011;55741;53.252;5.788;2023-02-07T01:53:02;32.72;;;9.88;;
54123;SDS011;55741;53.252;5.788;2023-02-07T01:55:31;32.45;;;10.13;;
54123;SDS011;55741;53.252;5.788;2023-02-07T01:57:59;28.67;;;9.40;;
54123;SDS011;55741;53.252;5.788;2023-02-07T02:00:27;32.28;;;9.82;;
54123;SDS011;55741;53.252;5.788;2023-02-07T02:02:53;33.67;;;10.32;;
54123;SDS011;55741;53.252;5.788;2023-02-07T02:05:19;32.13;;;11.20;;
54123;SDS011;55741;53.252;5.788;2023-02-07T02:07:46;37.00;;;11.13;;
54123;SDS011;55741;53.252;5.788;2023-02-07T02:10:16;32.03;;;11.13;;
54123;SDS011;55741;53.252;5.788;2023-02-07T02:12:54;40.58;;;11.05;;
54123;SDS011;55741;53.252;5.788;2023-02-07T02:18:34;27.30;;;9.73;;
54123;SDS011;55741;53.252;5.788;2023-02-07T02:27:02;37.95;;;10.93;;
54123;SDS011;55741;53.252;5.788;2023-02-07T02:35:29;42.25;;;10.68;;
54123;SDS011;55741;53.252;5.788;2023-02-07T02:38:25;30.58;;;11.15;;
54123;SDS011;55741;53.252;5.788;2023-02-07T02:44:21;34.03;;;12.20;;
54123;SDS011;55741;53.252;5.788;2023-02-07T02:46:32;26.10;;;10.23;;
54123;SDS011;55741;53.252;5.788;2023-02-07T02:49:00;27.33;;;11.40;;
54123;SDS011;55741;53.252;5.788;2023-02-07T02:51:28;32.88;;;10.40;;
54123;SDS011;55741;53.252;5.788;2023-02-07T02:53:55;31.13;;;11.23;;
54123;SDS011;55741;53.252;5.788;2023-02-07T02:59:23;43.67;;;14.55;;
54123;SDS011;55741;53.252;5.788;2023-02-07T03:04:31;43.83;;;14.13;;
54123;SDS011;55741;53.252;5.788;2023-02-07T03:10:01;41.88;;;14.35;;
54123;SDS011;55741;53.252;5.788;2023-02-07T03:13:03;54.35;;;15.10;;
54123;SDS011;55741;53.252;5.788;2023-02-07T03:15:46;63.45;;;16.10;;
54123;SDS011;55741;53.252;5.788;2023-02-07T03:21:23;47.47;;;16.58;;
54123;SDS011;55741;53.252;5.788;2023-02-07T03:24:07;51.63;;;16.60;;
54123;SDS011;55741;53.252;5.788;2023-02-07T03:26:38;59.38;;;17.77;;
54123;SDS011;55741;53.252;5.788;2023-02-07T03:29:07;51.17;;;17.63;;
54123;SDS011;55741;53.252;5.788;2023-02-07T03:31:35;55.47;;;16.58;;
54123;SDS011;55741;53.252;5.788;2023-02-07T03:34:10;52.42;;;18.58;;
54123;SDS011;55741;53.252;5.788;2023-02-07T03:36:48;56.47;;;19.60;;
54123;SDS011;55741;53.252;5.788;2023-02-07T03:39:38;51.17;;;17.35;;
54123;SDS011;55741;53.252;5.788;2023-02-07T03:42:05;52.88;;;18.85;;
54123;SDS011;55741;53.252;5.788;2023-02-07T03:44:36;61.15;;;18.17;;
54123;SDS011;55741;53.252;5.788;2023-02-07T03:47:05;55.50;;;19.70;;
54123;SDS011;55741;53.252;5.788;2023-02-07T03:49:31;53.65;;;19.45;;
54123;SDS011;55741;53.252;5.788;2023-02-07T03:51:57;60.33;;;19.27;;
54123;SDS011;55741;53.252;5.788;2023-02-07T03:54:23;55.83;;;19.67;;
54123;SDS011;55741;53.252;5.788;2023-02-07T03:56:49;64.63;;;20.70;;
54123;SDS011;55741;53.252;5.788;2023-02-07T03:59:14;61.13;;;20.13;;
54123;SDS011;55741;53.252;5.788;2023-02-07T04:01:40;65.50;;;21.70;;
54123;SDS011;55741;53.252;5.788;2023-02-07T04:04:07;60.00;;;19.30;;
54123;SDS011;55741;53.252;5.788;2023-02-07T04:06:34;49.38;;;16.83;;
54123;SDS011;55741;53.252;5.788;2023-02-07T04:08:59;48.20;;;18.98;;
54123;SDS011;55741;53.252;5.788;2023-02-07T04:11:25;46.33;;;18.17;;
54123;SDS011;55741;53.252;5.788;2023-02-07T04:13:51;52.03;;;18.77;;
54123;SDS011;55741;53.252;5.788;2023-02-07T04:16:17;47.65;;;17.10;;
54123;SDS011;55741;53.252;5.788;2023-02-07T04:18:43;52.75;;;18.50;;
54123;SDS011;55741;53.252;5.788;2023-02-07T04:21:09;56.08;;;19.85;;
54123;SDS011;55741;53.252;5.788;2023-02-07T04:23:35;58.95;;;21.48;;
54123;SDS011;55741;53.252;5.788;2023-02-07T04:26:01;66.70;;;21.20;;
54123;SDS011;55741;53.252;5.788;2023-02-07T04:28:27;59.50;;;21.95;;
54123;SDS011;55741;53.252;5.788;2023-02-07T04:30:53;53.60;;;21.23;;
54123;SDS011;55741;53.252;5.788;2023-02-07T04:33:20;59.97;;;22.67;;
54123;SDS011;55741;53.252;5.788;2023-02-07T04:36:00;58.30;;;20.17;;
54123;SDS011;55741;53.252;5.788;2023-02-07T04:38:27;59.92;;;21.88;;
54123;SDS011;55741;53.252;5.788;2023-02-07T04:40:57;70.97;;;23.80;;
54123;SDS011;55741;53.252;5.788;2023-02-07T04:43:24;61.25;;;23.13;;
54123;SDS011;55741;53.252;5.788;2023-02-07T04:45:51;65.00;;;23.10;;
54123;SDS011;55741;53.252;5.788;2023-02-07T04:48:17;67.70;;;23.92;;
54123;SDS011;55741;53.252;5.788;2023-02-07T04:50:42;67.82;;;22.70;;
54123;SDS011;55741;53.252;5.788;2023-02-07T04:53:08;68.45;;;24.00;;
54123;SDS011;55741;53.252;5.788;2023-02-07T04:55:34;67.22;;;24.13;;
54123;SDS011;55741;53.252;5.788;2023-02-07T04:58:01;70.97;;;21.95;;
54123;SDS011;55741;53.252;5.788;2023-02-07T05:00:28;68.07;;;23.92;;
54123;SDS011;55741;53.252;5.788;2023-02-07T05:02:54;64.10;;;24.35;;
54123;SDS011;55741;53.252;5.788;2023-02-07T05:05:20;68.63;;;25.55;;
54123;SDS011;55741;53.252;5.788;2023-02-07T05:07:46;64.28;;;25.23;;
54123;SDS011;55741;53.252;5.788;2023-02-07T05:10:12;64.95;;;24.77;;
54123;SDS011;55741;53.252;5.788;2023-02-07T05:12:38;66.38;;;24.25;;
54123;SDS011;55741;53.252;5.788;2023-02-07T05:15:03;55.22;;;22.63;;
54123;SDS011;55741;53.252;5.788;2023-02-07T05:17:30;66.45;;;24.50;;
54123;SDS011;55741;53.252;5.788;2023-02-07T05:20:01;78.35;;;24.35;;
54123;SDS011;55741;53.252;5.788;2023-02-07T05:22:27;62.22;;;22.52;;
54123;SDS011;55741;53.252;5.788;2023-02-07T05:24:53;71.75;;;26.73;;
54123;SDS011;55741;53.252;5.788;2023-02-07T05:27:19;70.95;;;24.40;;
54123;SDS011;55741;53.252;5.788;2023-02-07T05:29:45;64.13;;;25.83;;
54123;SDS011;55741;53.252;5.788;2023-02-07T05:32:12;69.72;;;25.30;;
54123;SDS011;55741;53.252;5.788;2023-02-07T05:34:57;81.88;;;25.88;;
54123;SDS011;55741;53.252;5.788;2023-02-07T05:37:23;59.25;;;24.45;;
54123;SDS011;55741;53.252;5.788;2023-02-07T05:39:48;70.50;;;24.23;;
54123;SDS011;55741;53.252;5.788;2023-02-07T05:42:14;63.75;;;24.58;;
54123;SDS011;55741;53.252;5.788;2023-02-07T05:44:40;70.40;;;28.30;;
54123;SDS011;55741;53.252;5.788;2023-02-07T05:47:08;71.45;;;29.27;;
54123;SDS011;55741;53.252;5.788;2023-02-07T05:49:34;81.38;;;30.85;;
54123;SDS011;55741;53.252;5.788;2023-02-07T05:51:59;77.88;;;30.88;;
54123;SDS011;55741;53.252;5.788;2023-02-07T05:54:25;85.22;;;29.88;;
54123;SDS011;55741;53.252;5.788;2023-02-07T05:56:51;78.80;;;32.65;;
54123;SDS011;55741;53.252;5.788;2023-02-07T05:59:17;59.55;;;24.08;;
54123;SDS011;55741;53.252;5.788;2023-02-07T06:01:43;65.97;;;26.58;;
54123;SDS011;55741;53.252;5.788;2023-02-07T06:04:09;58.05;;;22.73;;
54123;SDS011;55741;53.252;5.788;2023-02-07T06:06:35;51.40;;;22.67;;
54123;SDS011;55741;53.252;5.788;2023-02-07T06:09:00;60.55;;;23.10;;
54123;SDS011;55741;53.252;5.788;2023-02-07T06:11:26;52.08;;;22.20;;
54123;SDS011;55741;53.252;5.788;2023-02-07T06:13:52;53.65;;;21.85;;
54123;SDS011;55741;53.252;5.788;2023-02-07T06:16:18;56.75;;;22.90;;
54123;SDS011;55741;53.252;5.788;2023-02-07T06:18:44;50.35;;;21.67;;
54123;SDS011;55741;53.252;5.788;2023-02-07T06:21:10;47.35;;;21.75;;
54123;SDS011;55741;53.252;5.788;2023-02-07T06:23:36;51.50;;;21.75;;
54123;SDS011;55741;53.252;5.788;2023-02-07T06:26:02;49.17;;;21.85;;
54123;SDS011;55741;53.252;5.788;2023-02-07T06:28:28;45.78;;;21.85;;
54123;SDS011;55741;53.252;5.788;2023-02-07T06:30:53;51.08;;;22.88;;
54123;SDS011;55741;53.252;5.788;2023-02-07T06:33:19;47.55;;;20.55;;
54123;SDS011;55741;53.252;5.788;2023-02-07T06:35:45;54.70;;;21.98;;
54123;SDS011;55741;53.252;5.788;2023-02-07T06:38:12;53.97;;;21.52;;
54123;SDS011;55741;53.252;5.788;2023-02-07T06:40:39;50.05;;;22.35;;
54123;SDS011;55741;53.252;5.788;2023-02-07T06:43:06;48.38;;;21.90;;
54123;SDS011;55741;53.252;5.788;2023-02-07T06:45:31;53.83;;;22.00;;
54123;SDS011;55741;53.252;5.788;2023-02-07T06:47:59;51.08;;;21.23;;
54123;SDS011;55741;53.252;5.788;2023-02-07T06:50:25;53.83;;;21.45;;
54123;SDS011;55741;53.252;5.788;2023-02-07T06:52:51;53.35;;;21.42;;
54123;SDS011;55741;53.252;5.788;2023-02-07T06:55:16;46.78;;;20.48;;
54123;SDS011;55741;53.252;5.788;2023-02-07T06:57:42;45.35;;;20.95;;
54123;SDS011;55741;53.252;5.788;2023-02-07T07:00:08;45.78;;;20.95;;
54123;SDS011;55741;53.252;5.788;2023-02-07T07:02:35;41.83;;;19.98;;
54123;SDS011;55741;53.252;5.788;2023-02-07T07:05:01;47.33;;;21.42;;
54123;SDS011;55741;53.252;5.788;2023-02-07T07:07:28;55.70;;;22.13;;
54123;SDS011;55741;53.252;5.788;2023-02-07T07:09:54;56.53;;;24.08;;
54123;SDS011;55741;53.252;5.788;2023-02-07T07:12:19;53.00;;;22.90;;
54123;SDS011;55741;53.252;5.788;2023-02-07T07:14:45;45.28;;;21.38;;
54123;SDS011;55741;53.252;5.788;2023-02-07T07:17:11;47.65;;;22.02;;
54123;SDS011;55741;53.252;5.788;2023-02-07T07:19:37;41.97;;;20.63;;
54123;SDS011;55741;53.252;5.788;2023-02-07T07:22:03;45.92;;;21.23;;
54123;SDS011;55741;53.252;5.788;2023-02-07T07:24:28;40.40;;;20.65;;
54123;SDS011;55741;53.252;5.788;2023-02-07T07:26:54;45.70;;;21.30;;
54123;SDS011;55741;53.252;5.788;2023-02-07T07:29:20;40.47;;;19.70;;
54123;SDS011;55741;53.252;5.788;2023-02-07T07:31:46;38.65;;;18.92;;
54123;SDS011;55741;53.252;5.788;2023-02-07T07:34:12;43.05;;;21.02;;
54123;SDS011;55741;53.252;5.788;2023-02-07T07:36:38;41.58;;;19.67;;
54123;SDS011;55741;53.252;5.788;2023-02-07T07:39:04;38.90;;;21.17;;
54123;SDS011;55741;53.252;5.788;2023-02-07T07:41:31;44.33;;;20.60;;
54123;SDS011;55741;53.252;5.788;2023-02-07T07:43:57;35.72;;;19.38;;
54123;SDS011;55741;53.252;5.788;2023-02-07T07:46:22;44.63;;;19.80;;
54123;SDS011;55741;53.252;5.788;2023-02-07T07:48:50;37.92;;;20.65;;
54123;SDS011;55741;53.252;5.788;2023-02-07T07:51:16;45.00;;;21.00;;
54123;SDS011;55741;53.252;5.788;2023-02-07T07:53:42;32.90;;;17.95;;
54123;SDS011;55741;53.252;5.788;2023-02-07T07:56:08;37.53;;;19.20;;
54123;SDS011;55741;53.252;5.788;2023-02-07T07:58:34;35.90;;;18.45;;
54123;SDS011;55741;53.252;5.788;2023-02-07T08:01:00;42.22;;;19.55;;
54123;SDS011;55741;53.252;5.788;2023-02-07T08:03:26;32.33;;;18.45;;
54123;SDS011;55741;53.252;5.788;2023-02-07T08:05:51;39.10;;;19.58;;
54123;SDS011;55741;53.252;5.788;2023-02-07T08:08:18;34.35;;;19.65;;
54123;SDS011;55741;53.252;5.788;2023-02-07T08:10:44;33.53;;;18.55;;
54123;SDS011;55741;53.252;5.788;2023-02-07T08:13:10;31.77;;;18.58;;
54123;SDS011;55741;53.252;5.788;2023-02-07T08:15:36;37.38;;;19.55;;
54123;SDS011;55741;53.252;5.788;2023-02-07T08:18:03;31.58;;;17.48;;
54123;SDS011;55741;53.252;5.788;2023-02-07T08:20:30;38.40;;;20.15;;
54123;SDS011;55741;53.252;5.788;2023-02-07T08:22:56;34.00;;;17.85;;
54123;SDS011;55741;53.252;5.788;2023-02-07T08:25:22;35.45;;;18.55;;
54123;SDS011;55741;53.252;5.788;2023-02-07T08:27:49;41.10;;;20.40;;
54123;SDS011;55741;53.252;5.788;2023-02-07T08:30:15;34.53;;;19.58;;
54123;SDS011;55741;53.252;5.788;2023-02-07T08:32:43;37.95;;;18.55;;
54123;SDS011;55741;53.252;5.788;2023-02-07T08:35:09;31.13;;;17.80;;
54123;SDS011;55741;53.252;5.788;2023-02-07T08:37:35;32.88;;;17.30;;
54123;SDS011;55741;53.252;5.788;2023-02-07T08:40:02;29.83;;;17.60;;
54123;SDS011;55741;53.252;5.788;2023-02-07T08:42:29;28.42;;;17.05;;
54123;SDS011;55741;53.252;5.788;2023-02-07T08:44:55;29.38;;;17.25;;
54123;SDS011;55741;53.252;5.788;2023-02-07T08:47:21;33.33;;;18.45;;
54123;SDS011;55741;53.252;5.788;2023-02-07T08:49:48;32.45;;;18.80;;
54123;SDS011;55741;53.252;5.788;2023-02-07T08:52:14;35.55;;;18.55;;
54123;SDS011;55741;53.252;5.788;2023-02-07T08:54:40;31.35;;;17.55;;
54123;SDS011;55741;53.252;5.788;2023-02-07T08:57:06;30.35;;;16.10;;
54123;SDS011;55741;53.252;5.788;2023-02-07T08:59:32;32.63;;;17.27;;
54123;SDS011;55741;53.252;5.788;2023-02-07T09:01:57;28.25;;;17.52;;
54123;SDS011;55741;53.252;5.788;2023-02-07T09:04:23;29.15;;;18.75;;
54123;SDS011;55741;53.252;5.788;2023-02-07T09:06:49;28.75;;;17.05;;
54123;SDS011;55741;53.252;5.788;2023-02-07T09:09:15;32.80;;;17.67;;
54123;SDS011;55741;53.252;5.788;2023-02-07T09:11:41;30.67;;;17.45;;
54123;SDS011;55741;53.252;5.788;2023-02-07T09:14:07;29.05;;;18.00;;
54123;SDS011;55741;53.252;5.788;2023-02-07T09:16:33;28.35;;;17.63;;
54123;SDS011;55741;53.252;5.788;2023-02-07T09:18:59;31.67;;;19.05;;
54123;SDS011;55741;53.252;5.788;2023-02-07T09:21:24;27.65;;;17.92;;
54123;SDS011;55741;53.252;5.788;2023-02-07T09:23:52;28.77;;;16.73;;
54123;SDS011;55741;53.252;5.788;2023-02-07T09:26:20;30.48;;;17.38;;
54123;SDS011;55741;53.252;5.788;2023-02-07T09:28:47;28.77;;;16.42;;
54123;SDS011;55741;53.252;5.788;2023-02-07T09:31:13;31.35;;;18.27;;
54123;SDS011;55741;53.252;5.788;2023-02-07T09:33:40;31.35;;;17.35;;
54123;SDS011;55741;53.252;5.788;2023-02-07T09:36:20;32.97;;;18.27;;
54123;SDS011;55741;53.252;5.788;2023-02-07T09:38:51;29.67;;;18.58;;
54123;SDS011;55741;53.252;5.788;2023-02-07T09:44:12;30.58;;;17.90;;
54123;SDS011;55741;53.252;5.788;2023-02-07T09:47:03;34.42;;;17.88;;
54123;SDS011;55741;53.252;5.788;2023-02-07T09:49:46;29.08;;;17.55;;
54123;SDS011;55741;53.252;5.788;2023-02-07T09:52:19;32.08;;;19.15;;
54123;SDS011;55741;53.252;5.788;2023-02-07T09:54:49;31.60;;;20.02;;
54123;SDS011;55741;53.252;5.788;2023-02-07T09:57:19;29.77;;;17.52;;
54123;SDS011;55741;53.252;5.788;2023-02-07T10:00:03;29.63;;;17.95;;
54123;SDS011;55741;53.252;5.788;2023-02-07T10:02:38;37.08;;;19.33;;
54123;SDS011;55741;53.252;5.788;2023-02-07T10:05:20;30.02;;;18.60;;
54123;SDS011;55741;53.252;5.788;2023-02-07T10:07:54;35.17;;;18.63;;
54123;SDS011;55741;53.252;5.788;2023-02-07T10:10:23;29.17;;;17.38;;
54123;SDS011;55741;53.252;5.788;2023-02-07T10:15:29;36.70;;;17.85;;
54123;SDS011;55741;53.252;5.788;2023-02-07T10:26:42;30.58;;;18.95;;
54123;SDS011;55741;53.252;5.788;2023-02-07T10:31:50;33.60;;;18.30;;
54123;SDS011;55741;53.252;5.788;2023-02-07T10:34:20;33.78;;;20.60;;
54123;SDS011;55741;53.252;5.788;2023-02-07T10:36:49;31.50;;;18.27;;
54123;SDS011;55741;53.252;5.788;2023-02-07T10:39:24;30.42;;;18.40;;
54123;SDS011;55741;53.252;5.788;2023-02-07T10:41:57;31.95;;;19.25;;
54123;SDS011;55741;53.252;5.788;2023-02-07T10:44:23;29.35;;;17.90;;
54123;SDS011;55741;53.252;5.788;2023-02-07T10:46:54;26.90;;;18.15;;
54123;SDS011;55741;53.252;5.788;2023-02-07T10:49:26;29.90;;;19.07;;
54123;SDS011;55741;53.252;5.788;2023-02-07T10:51:54;31.80;;;19.02;;
54123;SDS011;55741;53.252;5.788;2023-02-07T10:54:24;30.30;;;18.38;;
54123;SDS011;55741;53.252;5.788;2023-02-07T10:56:57;28.75;;;18.75;;
54123;SDS011;55741;53.252;5.788;2023-02-07T10:59:40;33.78;;;17.63;;
54123;SDS011;55741;53.252;5.788;2023-02-07T11:07:25;27.05;;;16.30;;
54123;SDS011;55741;53.252;5.788;2023-02-07T11:09:51;29.42;;;17.58;;
54123;SDS011;55741;53.252;5.788;2023-02-07T11:12:45;30.08;;;17.88;;
54123;SDS011;55741;53.252;5.788;2023-02-07T11:15:16;30.05;;;19.08;;
54123;SDS011;55741;53.252;5.788;2023-02-07T11:17:48;29.05;;;17.33;;
54123;SDS011;55741;53.252;5.788;2023-02-07T11:20:24;30.35;;;16.90;;
54123;SDS011;55741;53.252;5.788;2023-02-07T11:22:59;28.65;;;17.02;;
54123;SDS011;55741;53.252;5.788;2023-02-07T11:25:31;30.33;;;17.88;;
54123;SDS011;55741;53.252;5.788;2023-02-07T11:28:00;25.90;;;17.00;;
54123;SDS011;55741;53.252;5.788;2023-02-07T11:30:27;27.02;;;15.82;;
54123;SDS011;55741;53.252;5.788;2023-02-07T11:33:01;24.30;;;16.85;;
54123;SDS011;55741;53.252;5.788;2023-02-07T11:35:29;26.75;;;17.00;;
54123;SDS011;55741;53.252;5.788;2023-02-07T11:38:05;25.58;;;15.80;;
54123;SDS011;55741;53.252;5.788;2023-02-07T11:40:42;30.73;;;18.23;;
54123;SDS011;55741;53.252;5.788;2023-02-07T11:43:12;23.95;;;16.33;;
54123;SDS011;55741;53.252;5.788;2023-02-07T11:45:41;22.67;;;15.57;;
54123;SDS011;55741;53.252;5.788;2023-02-07T11:51:06;26.58;;;14.98;;
54123;SDS011;55741;53.252;5.788;2023-02-07T11:59:03;25.73;;;16.98;;
54123;SDS011;55741;53.252;5.788;2023-02-07T12:01:32;25.67;;;15.77;;
54123;SDS011;55741;53.252;5.788;2023-02-07T12:04:00;24.38;;;16.98;;
54123;SDS011;55741;53.252;5.788;2023-02-07T12:06:41;28.15;;;16.67;;
54123;SDS011;55741;53.252;5.788;2023-02-07T12:09:20;25.77;;;16.98;;
54123;SDS011;55741;53.252;5.788;2023-02-07T12:12:06;28.60;;;16.35;;
54123;SDS011;55741;53.252;5.788;2023-02-07T12:17:23;29.30;;;17.55;;
54123;SDS011;55741;53.252;5.788;2023-02-07T12:20:06;26.13;;;15.70;;
54123;SDS011;55741;53.252;5.788;2023-02-07T12:22:42;25.10;;;16.10;;
54123;SDS011;55741;53.252;5.788;2023-02-07T12:25:20;24.10;;;15.60;;
54123;SDS011;55741;53.252;5.788;2023-02-07T12:27:49;22.88;;;15.15;;
54123;SDS011;55741;53.252;5.788;2023-02-07T12:30:36;26.13;;;16.00;;
54123;SDS011;55741;53.252;5.788;2023-02-07T12:38:46;25.58;;;17.95;;
54123;SDS011;55741;53.252;5.788;2023-02-07T12:44:29;29.65;;;18.98;;
54123;SDS011;55741;53.252;5.788;2023-02-07T12:47:01;33.90;;;18.45;;
54123;SDS011;55741;53.252;5.788;2023-02-07T12:56:07;28.10;;;18.42;;
54123;SDS011;55741;53.252;5.788;2023-02-07T12:58:34;27.63;;;18.05;;
54123;SDS011;55741;53.252;5.788;2023-02-07T13:01:19;26.08;;;18.10;;
54123;SDS011;55741;53.252;5.788;2023-02-07T13:06:41;30.60;;;18.30;;
54123;SDS011;55741;53.252;5.788;2023-02-07T13:09:15;28.33;;;17.85;;
54123;SDS011;55741;53.252;5.788;2023-02-07T13:14:41;25.77;;;17.55;;
54123;SDS011;55741;53.252;5.788;2023-02-07T13:17:38;26.00;;;17.40;;
54123;SDS011;55741;53.252;5.788;2023-02-07T13:22:57;26.20;;;16.33;;
54123;SDS011;55741;53.252;5.788;2023-02-07T13:25:26;26.42;;;16.63;;
54123;SDS011;55741;53.252;5.788;2023-02-07T13:28:02;29.25;;;16.80;;
54123;SDS011;55741;53.252;5.788;2023-02-07T13:30:31;25.27;;;16.55;;
54123;SDS011;55741;53.252;5.788;2023-02-07T13:32:59;25.65;;;16.10;;
54123;SDS011;55741;53.252;5.788;2023-02-07T13:35:31;22.80;;;17.05;;
54123;SDS011;55741;53.252;5.788;2023-02-07T13:38:06;26.20;;;16.33;;
54123;SDS011;55741;53.252;5.788;2023-02-07T13:43:50;27.88;;;15.88;;
54123;SDS011;55741;53.252;5.788;2023-02-07T13:46:48;23.30;;;16.83;;
54123;SDS011;55741;53.252;5.788;2023-02-07T13:49:46;27.02;;;16.30;;
54123;SDS011;55741;53.252;5.788;2023-02-07T13:52:36;29.75;;;17.02;;
54123;SDS011;55741;53.252;5.788;2023-02-07T13:55:35;27.63;;;17.63;;
54123;SDS011;55741;53.252;5.788;2023-02-07T13:58:04;28.65;;;17.70;;
54123;SDS011;55741;53.252;5.788;2023-02-07T14:03:56;29.05;;;19.33;;
54123;SDS011;55741;53.252;5.788;2023-02-07T14:06:36;29.50;;;18.05;;
54123;SDS011;55741;53.252;5.788;2023-02-07T14:09:22;28.20;;;19.27;;
54123;SDS011;55741;53.252;5.788;2023-02-07T14:12:03;26.92;;;18.17;;
54123;SDS011;55741;53.252;5.788;2023-02-07T14:14:32;32.45;;;19.45;;
54123;SDS011;55741;53.252;5.788;2023-02-07T14:17:05;32.20;;;18.42;;
54123;SDS011;55741;53.252;5.788;2023-02-07T14:22:24;28.05;;;18.33;;
54123;SDS011;55741;53.252;5.788;2023-02-07T14:27:32;33.28;;;21.30;;
54123;SDS011;55741;53.252;5.788;2023-02-07T14:32:29;32.83;;;19.58;;
54123;SDS011;55741;53.252;5.788;2023-02-07T14:40:26;32.30;;;20.83;;
54123;SDS011;55741;53.252;5.788;2023-02-07T14:45:37;28.13;;;19.15;;
54123;SDS011;55741;53.252;5.788;2023-02-07T14:48:28;37.97;;;21.58;;
54123;SDS011;55741;53.252;5.788;2023-02-07T14:50:54;33.35;;;20.65;;
54123;SDS011;55741;53.252;5.788;2023-02-07T14:53:22;33.90;;;20.17;;
54123;SDS011;55741;53.252;5.788;2023-02-07T14:55:50;33.70;;;19.27;;
54123;SDS011;55741;53.252;5.788;2023-02-07T15:00:48;27.85;;;18.27;;
54123;SDS011;55741;53.252;5.788;2023-02-07T15:03:20;28.65;;;18.17;;
54123;SDS011;55741;53.252;5.788;2023-02-07T15:08:20;27.92;;;17.70;;
54123;SDS011;55741;53.252;5.788;2023-02-07T15:11:03;28.40;;;16.90;;
54123;SDS011;55741;53.252;5.788;2023-02-07T15:13:35;28.73;;;17.95;;
54123;SDS011;55741;53.252;5.788;2023-02-07T15:16:11;31.98;;;17.25;;
54123;SDS011;55741;53.252;5.788;2023-02-07T15:18:41;30.52;;;17.83;;
54123;SDS011;55741;53.252;5.788;2023-02-07T15:21:19;27.52;;;16.52;;
54123;SDS011;55741;53.252;5.788;2023-02-07T15:23:55;30.40;;;16.50;;
54123;SDS011;55741;53.252;5.788;2023-02-07T15:26:37;34.67;;;18.20;;
54123;SDS011;55741;53.252;5.788;2023-02-07T15:29:04;27.73;;;16.77;;
54123;SDS011;55741;53.252;5.788;2023-02-07T15:31:38;28.02;;;17.15;;
54123;SDS011;55741;53.252;5.788;2023-02-07T15:34:07;33.08;;;16.50;;
54123;SDS011;55741;53.252;5.788;2023-02-07T15:36:40;29.08;;;15.45;;
54123;SDS011;55741;53.252;5.788;2023-02-07T15:39:15;25.85;;;16.33;;
54123;SDS011;55741;53.252;5.788;2023-02-07T15:41:48;25.13;;;14.48;;
54123;SDS011;55741;53.252;5.788;2023-02-07T15:44:20;23.83;;;14.75;;
54123;SDS011;55741;53.252;5.788;2023-02-07T15:46:54;28.20;;;15.52;;
54123;SDS011;55741;53.252;5.788;2023-02-07T15:51:54;24.80;;;13.48;;
54123;SDS011;55741;53.252;5.788;2023-02-07T15:54:25;22.45;;;12.95;;
54123;SDS011;55741;53.252;5.788;2023-02-07T15:56:57;23.45;;;13.50;;
54123;SDS011;55741;53.252;5.788;2023-02-07T15:59:25;23.77;;;13.70;;
54123;SDS011;55741;53.252;5.788;2023-02-07T16:01:55;24.08;;;13.30;;
54123;SDS011;55741;53.252;5.788;2023-02-07T16:04:27;25.58;;;15.25;;
54123;SDS011;55741;53.252;5.788;2023-02-07T16:07:02;28.83;;;14.27;;
54123;SDS011;55741;53.252;5.788;2023-02-07T16:09:35;23.55;;;14.02;;
54123;SDS011;55741;53.252;5.788;2023-02-07T16:12:20;26.40;;;15.00;;
54123;SDS011;55741;53.252;5.788;2023-02-07T16:15:20;26.08;;;13.88;;
54123;SDS011;55741;53.252;5.788;2023-02-07T16:17:54;25.77;;;14.02;;
54123;SDS011;55741;53.252;5.788;2023-02-07T16:20:20;28.02;;;14.95;;
54123;SDS011;55741;53.252;5.788;2023-02-07T16:22:47;26.30;;;15.00;;
54123;SDS011;55741;53.252;5.788;2023-02-07T16:25:16;26.00;;;15.88;;
54123;SDS011;55741;53.252;5.788;2023-02-07T16:27:47;25.25;;;15.00;;
54123;SDS011;55741;53.252;5.788;2023-02-07T16:30:20;22.58;;;13.85;;
54123;SDS011;55741;53.252;5.788;2023-02-07T16:32:51;24.13;;;14.85;;
54123;SDS011;55741;53.252;5.788;2023-02-07T16:35:21;30.08;;;15.20;;